Time;durP1;ratioP1;P1;durP2;ratioP2;P2;SDS_P1;SDS_P2;PMS_P1;PMS_P2;Temp;Humidity;BMP_temperature;BMP_pressure;BME280_temperature;BME280_humidity;BME280_pressure;Samples;Min_cycle;Max_cycle;Signal;HPM_P1;HPM_P2
2021/10/21 00:01:08;;;;;;;;;;;21.10;63.00;;;;;;5056031;28;1475;-70
2021/10/21 00:03:35;;;;;;;;;;;21.10;63.00;;;;;;5021439;28;1455;-70
2021/10/21 00:06:00;;;;;;;;;;;21.10;63.00;;;;;;5021495;28;1473;-70
2021/10/21 00:08:25;;;;;;;;;;;21.10;63.00;;;;;;5055640;28;1299;-70
2021/10/21 00:10:51;;;;;;;;;;;21.10;63.10;;;;;;5038147;28;1949;-70
2021/10/21 00:13:16;;;;;;;;;;;21.10;63.10;;;;;;5057300;28;1345;-70
2021/10/21 00:15:42;;;;;;;;;;;21.10;63.10;;;;;;5021106;28;1351;-70
2021/10/21 00:18:08;;;;;;;;;;;21.10;63.10;;;;;;5055673;28;1354;-70
2021/10/21 00:20:33;;;;;;;;;;;21.10;63.20;;;;;;5055898;28;1082;-70
2021/10/21 00:22:58;;;;;;;;;;;21.10;63.20;;;;;;5055261;28;1277;-70
2021/10/21 00:25:24;;;;;;;;;;;21.10;63.20;;;;;;5037399;28;1135;-70
2021/10/21 00:27:49;;;;;;;;;;;21.10;63.20;;;;;;5055390;28;1394;-70
2021/10/21 00:30:15;;;;;;;;;;;21.10;63.20;;;;;;5055499;28;1902;-70
2021/10/21 00:32:42;;;;;;;;;;;21.10;63.20;;;;;;5055400;28;1386;-70
2021/10/21 00:35:08;;;;;;;;;;;21.10;63.20;;;;;;5037722;28;1710;-71
2021/10/21 00:37:33;;;;;;;;;;;21.00;63.20;;;;;;5055133;28;1090;-71
2021/10/21 00:39:58;;;;;;;;;;;21.00;63.20;;;;;;5037535;28;1380;-71
2021/10/21 00:42:24;;;;;;;;;;;21.10;63.30;;;;;;5020978;28;1393;-71
2021/10/21 00:44:49;;;;;;;;;;;21.10;63.30;;;;;;5054140;28;1362;-71
2021/10/21 00:47:16;;;;;;;;;;;21.00;63.20;;;;;;5055160;28;1081;-71
2021/10/21 00:49:41;;;;;;;;;;;21.00;63.30;;;;;;5055023;28;1961;-71
2021/10/21 00:52:07;;;;;;;;;;;21.00;63.30;;;;;;5037011;28;1393;-71
2021/10/21 00:54:32;;;;;;;;;;;21.00;63.30;;;;;;5036896;28;1189;-71
2021/10/21 00:56:58;;;;;;;;;;;21.00;63.30;;;;;;5037192;28;1413;-71
2021/10/21 00:59:23;;;;;;;;;;;21.00;63.30;;;;;;5037072;28;1463;-71
2021/10/21 01:01:49;;;;;;;;;;;21.00;63.40;;;;;;5054959;28;1414;-70
2021/10/21 01:04:14;;;;;;;;;;;21.00;63.40;;;;;;5054537;28;1203;-70
2021/10/21 01:06:41;;;;;;;;;;;21.00;63.40;;;;;;5036830;28;1362;-71
2021/10/21 01:09:06;;;;;;;;;;;21.00;63.40;;;;;;5036844;28;1957;-71
2021/10/21 01:11:32;;;;;;;;;;;21.00;63.40;;;;;;5036945;28;1184;-71
2021/10/21 01:13:57;;;;;;;;;;;21.00;63.40;;;;;;5037794;28;1295;-71
2021/10/21 01:16:23;;;;;;;;;;;21.00;63.50;;;;;;5054388;28;1089;-71
2021/10/21 01:18:48;;;;;;;;;;;21.00;63.50;;;;;;5054643;28;1462;-70
2021/10/21 01:21:14;;;;;;;;;;;21.00;63.50;;;;;;5054642;28;1049;-71
2021/10/21 01:23:39;;;;;;;;;;;21.00;63.50;;;;;;5054272;28;1280;-71
2021/10/21 01:26:08;;;;;;;;;;;21.00;63.50;;;;;;5036272;28;1308;-71
2021/10/21 01:28:34;;;;;;;;;;;21.00;63.50;;;;;;5036654;28;1147;-71
2021/10/21 01:30:59;;;;;;;;;;;21.00;63.50;;;;;;5036469;28;1965;-71
2021/10/21 01:33:25;;;;;;;;;;;21.00;63.50;;;;;;5054269;28;1381;-70
2021/10/21 01:35:50;;;;;;;;;;;21.00;63.50;;;;;;5036106;28;1099;-71
2021/10/21 01:38:15;;;;;;;;;;;21.00;63.60;;;;;;5054268;28;1047;-71
2021/10/21 01:40:41;;;;;;;;;;;21.00;63.60;;;;;;5054261;28;1459;-71
2021/10/21 01:43:08;;;;;;;;;;;21.00;63.60;;;;;;5053889;28;1405;-71
2021/10/21 01:45:34;;;;;;;;;;;21.00;63.60;;;;;;5053828;28;1135;-71
2021/10/21 01:48:00;;;;;;;;;;;20.90;63.50;;;;;;5019687;28;1295;-70
2021/10/21 01:50:26;;;;;;;;;;;20.90;63.50;;;;;;5053294;28;1965;-71
2021/10/21 01:52:52;;;;;;;;;;;21.00;63.60;;;;;;5053897;28;1138;-71
2021/10/21 01:55:17;;;;;;;;;;;20.90;63.50;;;;;;5052682;28;1285;-71
2021/10/21 01:57:43;;;;;;;;;;;20.90;63.60;;;;;;5053482;28;1130;-70
2021/10/21 02:00:10;;;;;;;;;;;20.90;63.60;;;;;;5035969;28;1142;-71
2021/10/21 02:02:35;;;;;;;;;;;20.90;63.60;;;;;;5036014;28;1186;-71
2021/10/21 02:05:01;;;;;;;;;;;20.90;63.60;;;;;;5018484;28;2301;-71
2021/10/21 02:07:26;;;;;;;;;;;20.90;63.60;;;;;;5053713;28;1214;-71
2021/10/21 02:09:51;;;;;;;;;;;20.90;63.70;;;;;;5053409;28;1901;-71
2021/10/21 02:12:17;;;;;;;;;;;20.90;63.60;;;;;;5053598;28;1369;-71
2021/10/21 02:14:42;;;;;;;;;;;20.90;63.70;;;;;;5036567;28;1316;-71
2021/10/21 02:17:08;;;;;;;;;;;20.90;63.70;;;;;;5053527;28;1122;-71
2021/10/21 02:19:34;;;;;;;;;;;20.90;63.70;;;;;;5035513;28;1201;-71
2021/10/21 02:21:59;;;;;;;;;;;20.90;63.70;;;;;;5035575;28;1256;-71
2021/10/21 02:24:25;;;;;;;;;;;20.90;63.70;;;;;;5034916;28;1391;-71
2021/10/21 02:26:50;;;;;;;;;;;20.90;63.70;;;;;;5035482;28;1123;-71
2021/10/21 02:29:16;;;;;;;;;;;20.90;63.70;;;;;;5053046;28;1910;-71
2021/10/21 02:31:41;;;;;;;;;;;20.90;63.70;;;;;;5053237;28;1393;-71
2021/10/21 02:34:06;;;;;;;;;;;20.90;63.80;;;;;;5018374;28;1284;-71
2021/10/21 02:36:32;;;;;;;;;;;20.90;63.80;;;;;;5035567;28;1068;-71
2021/10/21 02:39:00;;;;;;;;;;;20.90;63.70;;;;;;5035347;28;1419;-71
2021/10/21 02:41:25;;;;;;;;;;;20.90;63.70;;;;;;5035092;28;1695;-71
2021/10/21 02:43:51;;;;;;;;;;;20.90;63.80;;;;;;5052836;28;1256;-71
2021/10/21 02:46:16;;;;;;;;;;;20.90;63.80;;;;;;5052914;28;1117;-71
2021/10/21 02:48:42;;;;;;;;;;;20.90;63.80;;;;;;5035036;28;1043;-70
2021/10/21 02:51:07;;;;;;;;;;;20.90;63.80;;;;;;5034910;28;1894;-71
2021/10/21 02:53:32;;;;;;;;;;;20.90;63.80;;;;;;5034903;28;1561;-71
2021/10/21 02:55:58;;;;;;;;;;;20.90;64.60;;;;;;5034708;28;1047;-71
2021/10/21 02:58:23;;;;;;;;;;;20.90;63.80;;;;;;5052799;28;1126;-71
2021/10/21 03:00:49;;;;;;;;;;;20.90;63.90;;;;;;5052927;28;1109;-70
2021/10/21 03:03:14;;;;;;;;;;;20.90;63.90;;;;;;5052597;28;1377;-71
2021/10/21 03:05:39;;;;;;;;;;;20.90;63.90;;;;;;5052642;28;1290;-71
2021/10/21 03:08:05;;;;;;;;;;;20.90;63.90;;;;;;5034478;28;1255;-71
2021/10/21 03:10:30;;;;;;;;;;;20.90;63.90;;;;;;5052630;28;1911;-71
2021/10/21 03:12:56;;;;;;;;;;;20.90;63.90;;;;;;5035867;28;1369;-71
2021/10/21 03:15:23;;;;;;;;;;;20.90;63.90;;;;;;5052544;28;1379;-71
2021/10/21 03:17:49;;;;;;;;;;;20.90;63.90;;;;;;5052646;28;1051;-71
2021/10/21 03:20:14;;;;;;;;;;;20.90;63.90;;;;;;5052626;28;1346;-71
2021/10/21 03:22:40;;;;;;;;;;;20.80;63.80;;;;;;5034743;28;1171;-70
2021/10/21 03:25:06;;;;;;;;;;;20.90;63.90;;;;;;5034291;28;1326;-71
2021/10/21 03:27:31;;;;;;;;;;;20.80;63.80;;;;;;5034727;28;1398;-71
2021/10/21 03:29:57;;;;;;;;;;;20.80;63.80;;;;;;5052446;28;1971;-71
2021/10/21 03:32:22;;;;;;;;;;;20.80;63.90;;;;;;5052495;28;1244;-71
2021/10/21 03:34:47;;;;;;;;;;;20.80;63.90;;;;;;5051875;28;1290;-71
2021/10/21 03:37:13;;;;;;;;;;;20.80;63.90;;;;;;5052404;28;1100;-71
2021/10/21 03:39:39;;;;;;;;;;;20.90;63.90;;;;;;5034577;28;1321;-71
2021/10/21 03:42:08;;;;;;;;;;;20.90;63.90;;;;;;5019401;28;961;-71
2021/10/21 03:44:33;;;;;;;;;;;20.90;63.90;;;;;;5032224;28;1322;-70
2021/10/21 03:46:58;;;;;;;;;;;20.90;63.80;;;;;;5033654;28;1075;-70
2021/10/21 03:49:24;;;;;;;;;;;20.90;63.80;;;;;;5032168;28;1965;-71
2021/10/21 03:51:49;;;;;;;;;;;20.90;63.70;;;;;;5032528;28;1171;-71
2021/10/21 03:54:15;;;;;;;;;;;20.90;63.70;;;;;;5032012;28;1402;-71
2021/10/21 03:56:41;;;;;;;;;;;20.90;63.60;;;;;;5032291;28;1370;-70
2021/10/21 03:59:07;;;;;;;;;;;21.00;63.60;;;;;;5014950;28;1307;-69
2021/10/21 04:01:32;;;;;;;;;;;21.00;63.50;;;;;;5040236;28;1938;-71
2021/10/21 04:03:57;;;;;;;;;;;21.00;63.50;;;;;;5051173;28;1381;-71
2021/10/21 04:06:23;;;;;;;;;;;21.00;63.40;;;;;;5051427;28;1063;-72
2021/10/21 04:08:48;;;;;;;;;;;21.00;63.30;;;;;;5033801;28;1282;-72
2021/10/21 04:11:14;;;;;;;;;;;21.00;63.30;;;;;;5034355;28;1899;-72
2021/10/21 04:13:39;;;;;;;;;;;21.00;63.20;;;;;;5034934;28;1399;-72
2021/10/21 04:16:04;;;;;;;;;;;21.00;63.20;;;;;;5051657;28;1350;-72
2021/10/21 04:18:30;;;;;;;;;;;21.10;63.20;;;;;;5033896;28;1315;-72
2021/10/21 04:20:55;;;;;;;;;;;21.10;63.20;;;;;;5055740;28;1381;-69
2021/10/21 04:23:21;;;;;;;;;;;21.10;63.10;;;;;;5055412;28;1432;-70
2021/10/21 04:25:46;;;;;;;;;;;21.10;63.00;;;;;;5055274;28;1421;-68
2021/10/21 04:28:12;;;;;;;;;;;21.10;63.00;;;;;;5055187;28;1286;-69
2021/10/21 04:30:37;;;;;;;;;;;21.10;63.00;;;;;;5055366;28;1898;-71
2021/10/21 04:33:02;;;;;;;;;;;21.10;62.90;;;;;;5029054;28;1280;-73
2021/10/21 04:35:28;;;;;;;;;;;21.20;63.00;;;;;;5017208;28;1268;-71
2021/10/21 04:37:53;;;;;;;;;;;21.20;63.00;;;;;;5035527;28;1280;-70
2021/10/21 04:40:19;;;;;;;;;;;21.10;62.80;;;;;;5017107;28;1284;-70
2021/10/21 04:42:44;;;;;;;;;;;21.20;62.80;;;;;;5035482;28;1310;-70
2021/10/21 04:45:10;;;;;;;;;;;21.20;62.80;;;;;;5034818;28;1291;-71
2021/10/21 04:47:35;;;;;;;;;;;21.20;62.80;;;;;;5027809;28;2149;-71
2021/10/21 04:50:01;;;;;;;;;;;21.20;62.80;;;;;;5053543;28;1949;-71
2021/10/21 04:52:27;;;;;;;;;;;21.20;62.70;;;;;;5054975;28;1103;-70
2021/10/21 04:54:53;;;;;;;;;;;21.20;62.70;;;;;;5054554;28;1256;-70
2021/10/21 04:57:18;;;;;;;;;;;21.20;62.80;;;;;;5055077;28;1306;-71
2021/10/21 04:59:44;;;;;;;;;;;21.20;62.70;;;;;;5054797;28;1250;-71
2021/10/21 05:02:09;;;;;;;;;;;21.20;62.70;;;;;;5054836;28;1098;-71
2021/10/21 05:04:35;;;;;;;;;;;21.20;62.60;;;;;;5054283;28;1263;-70
2021/10/21 05:07:01;;;;;;;;;;;21.20;62.50;;;;;;5054898;28;1068;-71
2021/10/21 05:09:26;;;;;;;;;;;21.20;62.50;;;;;;5054381;28;1953;-71
2021/10/21 05:11:52;;;;;;;;;;;21.20;62.50;;;;;;5054934;28;1338;-71
2021/10/21 05:14:17;;;;;;;;;;;21.20;62.50;;;;;;5055244;28;1371;-71
2021/10/21 05:16:42;;;;;;;;;;;21.20;62.50;;;;;;5054519;28;1257;-71
2021/10/21 05:19:08;;;;;;;;;;;21.20;62.50;;;;;;5054454;28;1039;-71
2021/10/21 05:21:33;;;;;;;;;;;21.20;62.50;;;;;;5054625;28;1331;-71
2021/10/21 05:23:59;;;;;;;;;;;21.20;62.50;;;;;;5054581;28;1338;-71
2021/10/21 05:26:24;;;;;;;;;;;21.20;62.50;;;;;;5054347;28;1021;-71
2021/10/21 05:28:50;;;;;;;;;;;21.20;62.50;;;;;;5054290;28;1338;-71
2021/10/21 05:31:15;;;;;;;;;;;21.20;62.40;;;;;;5053897;28;1906;-71
2021/10/21 05:33:40;;;;;;;;;;;21.20;62.40;;;;;;5054108;28;1381;-71
2021/10/21 05:36:06;;;;;;;;;;;21.20;62.40;;;;;;5036139;28;1075;-71
2021/10/21 05:38:31;;;;;;;;;;;21.20;62.40;;;;;;5054025;28;1454;-71
2021/10/21 05:40:57;;;;;;;;;;;21.20;62.50;;;;;;5054265;28;1059;-71
2021/10/21 05:43:23;;;;;;;;;;;21.30;62.50;;;;;;5036391;28;1280;-71
2021/10/21 05:45:48;;;;;;;;;;;21.20;62.40;;;;;;5035857;28;1319;-71
2021/10/21 05:48:16;;;;;;;;;;;21.30;62.50;;;;;;5036488;28;1319;-71
2021/10/21 05:50:41;;;;;;;;;;;21.30;62.50;;;;;;5036351;28;1957;-71
2021/10/21 05:53:07;;;;;;;;;;;21.30;62.40;;;;;;5053921;28;1288;-70
2021/10/21 05:55:32;;;;;;;;;;;21.20;62.40;;;;;;5053525;28;1452;-71
2021/10/21 05:57:58;;;;;;;;;;;21.30;62.40;;;;;;5053916;28;1389;-71
2021/10/21 06:00:23;;;;;;;;;;;21.30;62.40;;;;;;5053560;28;1467;-71
2021/10/21 06:02:49;;;;;;;;;;;21.30;62.40;;;;;;5035969;28;1299;-71
2021/10/21 06:05:14;;;;;;;;;;;21.20;62.40;;;;;;5053113;28;1374;-70
2021/10/21 06:07:39;;;;;;;;;;;21.30;62.40;;;;;;5053703;28;1353;-71
2021/10/21 06:10:05;;;;;;;;;;;21.30;62.40;;;;;;5053233;28;1910;-71
2021/10/21 06:12:30;;;;;;;;;;;21.30;62.30;;;;;;5036392;28;1312;-70
2021/10/21 06:14:56;;;;;;;;;;;21.30;62.20;;;;;;5053656;28;1299;-70
2021/10/21 06:17:24;;;;;;;;;;;21.30;62.00;;;;;;5053309;28;1282;-70
2021/10/21 06:19:49;;;;;;;;;;;21.40;61.80;;;;;;5035204;28;1143;-70
2021/10/21 06:22:18;;;;;;;;;;;21.40;60.60;;;;;;5035642;28;1402;-70
2021/10/21 06:24:44;;;;;;;;;;;21.40;60.20;;;;;;5034919;28;1291;-70
2021/10/21 06:27:10;;;;;;;;;;;21.30;59.60;;;;;;5053441;28;1350;-70
2021/10/21 06:29:35;;;;;;;;;;;21.40;59.60;;;;;;5052991;28;1959;-70
2021/10/21 06:32:00;;;;;;;;;;;21.40;59.50;;;;;;5053142;28;1412;-70
2021/10/21 06:34:26;;;;;;;;;;;21.40;59.00;;;;;;5052781;28;1465;-70
2021/10/21 06:36:52;;;;;;;;;;;21.40;58.70;;;;;;5035499;28;1312;-70
2021/10/21 06:39:17;;;;;;;;;;;21.40;58.80;;;;;;5053108;28;1330;-70
2021/10/21 06:41:43;;;;;;;;;;;21.40;58.50;;;;;;5052540;28;1381;-70
2021/10/21 06:44:08;;;;;;;;;;;21.30;58.60;;;;;;5052826;28;1255;-70
2021/10/21 06:46:33;;;;;;;;;;;21.40;58.50;;;;;;5052922;28;1089;-71
2021/10/21 06:48:59;;;;;;;;;;;21.30;58.60;;;;;;5035273;28;1338;-72
2021/10/21 06:51:25;;;;;;;;;;;21.40;58.70;;;;;;5052838;28;1878;-71
2021/10/21 06:53:50;;;;;;;;;;;21.40;58.70;;;;;;5052666;28;1357;-71
2021/10/21 06:56:16;;;;;;;;;;;21.40;58.70;;;;;;5052465;28;1278;-72
2021/10/21 06:58:41;;;;;;;;;;;21.40;58.80;;;;;;5034854;28;1327;-69
2021/10/21 07:01:06;;;;;;;;;;;21.50;58.90;;;;;;5052648;28;1421;-70
2021/10/21 07:03:32;;;;;;;;;;;21.50;58.90;;;;;;5034866;28;1318;-70
2021/10/21 07:05:57;;;;;;;;;;;21.50;59.00;;;;;;5052405;28;1277;-70
2021/10/21 07:08:25;;;;;;;;;;;21.60;59.00;;;;;;5034863;28;1346;-71
2021/10/21 07:10:51;;;;;;;;;;;21.60;59.10;;;;;;5052520;28;1906;-70
2021/10/21 07:13:16;;;;;;;;;;;21.60;59.10;;;;;;5026543;28;1299;-71
2021/10/21 07:15:42;;;;;;;;;;;21.70;59.60;;;;;;5022522;28;1438;-70
2021/10/21 07:18:07;;;;;;;;;;;21.70;59.90;;;;;;5043655;28;1706;-71
2021/10/21 07:20:32;;;;;;;;;;;21.80;59.90;;;;;;5041313;28;1363;-70
2021/10/21 07:22:58;;;;;;;;;;;21.80;60.10;;;;;;5044982;28;1449;-70
2021/10/21 07:25:26;;;;;;;;;;;21.80;60.50;;;;;;5039905;28;1241;-70
2021/10/21 07:27:52;;;;;;;;;;;21.90;60.60;;;;;;5026737;28;1441;-70
2021/10/21 07:30:17;;;;;;;;;;;21.90;60.70;;;;;;5029614;28;1918;-70
2021/10/21 07:32:43;;;;;;;;;;;21.90;60.70;;;;;;5036974;28;1299;-70
2021/10/21 07:35:09;;;;;;;;;;;22.00;61.00;;;;;;5009273;28;1711;-70
2021/10/21 07:37:34;;;;;;;;;;;22.00;60.80;;;;;;5015386;28;1777;-70
2021/10/21 07:39:59;;;;;;;;;;;22.00;61.00;;;;;;5032296;28;1361;-71
2021/10/21 07:42:25;;;;;;;;;;;22.00;61.10;;;;;;5032305;28;1382;-70
2021/10/21 07:44:50;;;;;;;;;;;22.00;61.30;;;;;;5031964;28;1432;-70
2021/10/21 07:47:16;;;;;;;;;;;22.00;61.80;;;;;;5014899;28;1745;-70
2021/10/21 07:49:41;;;;;;;;;;;22.10;61.90;;;;;;5014552;28;1968;-70
2021/10/21 07:52:07;;;;;;;;;;;22.10;62.00;;;;;;5038580;28;2042;-70
2021/10/21 07:54:32;;;;;;;;;;;22.10;62.30;;;;;;5034452;28;1551;-70
2021/10/21 07:56:58;;;;;;;;;;;22.10;62.70;;;;;;5054798;28;1335;-70
2021/10/21 07:59:24;;;;;;;;;;;22.10;62.60;;;;;;5021052;28;1673;-70
2021/10/21 08:01:49;;;;;;;;;;;22.10;62.90;;;;;;5054494;28;1626;-70
2021/10/21 08:04:15;;;;;;;;;;;22.10;63.10;;;;;;5042938;28;1674;-70
2021/10/21 08:06:42;;;;;;;;;;;22.10;63.50;;;;;;5035767;28;1190;-70
2021/10/21 08:09:08;;;;;;;;;;;22.10;63.50;;;;;;5047284;28;1382;-70
2021/10/21 08:11:33;;;;;;;;;;;22.10;63.50;;;;;;5056052;28;1970;-70
2021/10/21 08:13:59;;;;;;;;;;;22.20;63.90;;;;;;5056988;28;1547;-70
2021/10/21 08:16:24;;;;;;;;;;;22.20;64.00;;;;;;5055944;28;1394;-70
2021/10/21 08:18:50;;;;;;;;;;;22.10;63.80;;;;;;5055775;28;1433;-71
2021/10/21 08:21:16;;;;;;;;;;;22.20;64.00;;;;;;5055990;28;1631;-70
2021/10/21 08:23:47;;;;;;;;;;;22.20;63.90;;;;;;5044783;28;1373;-70
2021/10/21 08:26:13;;;;;;;;;;;22.20;63.80;;;;;;5018873;28;1598;-70
2021/10/21 08:28:38;;;;;;;;;;;22.20;64.30;;;;;;5033198;28;2361;-71
2021/10/21 08:31:04;;;;;;;;;;;22.20;63.40;;;;;;5029060;28;1957;-70
2021/10/21 08:33:29;;;;;;;;;;;22.30;63.30;;;;;;5054895;28;1686;-70
2021/10/21 08:35:54;;;;;;;;;;;22.30;63.30;;;;;;5054505;28;1424;-71
2021/10/21 08:38:20;;;;;;;;;;;22.30;63.40;;;;;;5054859;28;1319;-70
2021/10/21 08:40:45;;;;;;;;;;;22.30;63.40;;;;;;5054626;28;1241;-70
2021/10/21 08:43:11;;;;;;;;;;;22.20;63.40;;;;;;5036858;28;1409;-70
2021/10/21 08:45:36;;;;;;;;;;;22.20;63.50;;;;;;5054515;28;1624;-71
2021/10/21 08:48:02;;;;;;;;;;;22.20;63.50;;;;;;5036879;28;1381;-70
2021/10/21 08:50:28;;;;;;;;;;;22.20;63.40;;;;;;5054571;28;1957;-71
2021/10/21 08:52:53;;;;;;;;;;;22.20;63.40;;;;;;5054635;28;1372;-70
2021/10/21 08:55:19;;;;;;;;;;;22.20;63.40;;;;;;5036263;28;1413;-70
2021/10/21 08:57:44;;;;;;;;;;;22.20;63.40;;;;;;5054426;28;1352;-70
2021/10/21 09:00:11;;;;;;;;;;;22.20;63.50;;;;;;5036616;28;1593;-70
2021/10/21 09:02:48;;;;;;;;;;;22.20;63.50;;;;;;5036847;28;1348;-70
2021/10/21 09:05:37;;;;;;;;;;;22.20;63.40;;;;;;5033632;28;2100;-70
2021/10/21 09:08:09;;;;;;;;;;;22.20;63.50;;;;;;5022669;28;1549;-70
2021/10/21 09:10:52;;;;;;;;;;;22.20;63.70;;;;;;5054270;28;1971;-71
2021/10/21 09:13:25;;;;;;;;;;;22.20;63.80;;;;;;5054568;28;1652;-70
2021/10/21 09:15:51;;;;;;;;;;;22.20;63.90;;;;;;5036310;28;1382;-71
2021/10/21 09:18:17;;;;;;;;;;;22.20;64.10;;;;;;5052333;28;1702;-71
2021/10/21 09:20:43;;;;;;;;;;;22.20;64.90;;;;;;5052719;28;1441;-71
2021/10/21 09:23:09;;;;;;;;;;;22.30;64.80;;;;;;5052765;28;1618;-71
2021/10/21 09:25:36;;;;;;;;;;;22.20;64.70;;;;;;5040817;28;1414;-70
2021/10/21 09:28:02;;;;;;;;;;;22.30;64.80;;;;;;5033943;28;1674;-71
2021/10/21 09:30:31;;;;;;;;;;;22.30;64.80;;;;;;5033702;28;1914;-70
2021/10/21 09:33:03;;;;;;;;;;;22.30;64.80;;;;;;4999515;28;2174;-71
2021/10/21 09:35:29;;;;;;;;;;;22.30;64.70;;;;;;5033557;28;1722;-71
2021/10/21 09:37:54;;;;;;;;;;;22.40;64.50;;;;;;5016251;28;1393;-71
2021/10/21 09:40:22;;;;;;;;;;;22.40;64.40;;;;;;5016215;28;1684;-70
2021/10/21 09:42:58;;;;;;;;;;;22.40;64.50;;;;;;5016422;28;1616;-70
2021/10/21 09:45:24;;;;;;;;;;;22.40;64.60;;;;;;5015847;28;1689;-69
2021/10/21 09:47:51;;;;;;;;;;;22.40;64.50;;;;;;5034348;28;1182;-70
2021/10/21 09:50:17;;;;;;;;;;;22.40;64.40;;;;;;5042606;28;1992;-71
2021/10/21 09:52:43;;;;;;;;;;;22.40;64.40;;;;;;5036226;28;1657;-72
2021/10/21 09:55:10;;;;;;;;;;;22.40;64.40;;;;;;5052261;28;1596;-71
2021/10/21 09:57:35;;;;;;;;;;;22.40;64.70;;;;;;5054044;28;1682;-71
2021/10/21 10:00:04;;;;;;;;;;;22.40;64.70;;;;;;5036125;28;1378;-71
2021/10/21 10:02:30;;;;;;;;;;;22.40;64.80;;;;;;5036522;28;1702;-72
2021/10/21 10:04:57;;;;;;;;;;;22.40;64.80;;;;;;5035775;28;1927;-71
2021/10/21 10:07:22;;;;;;;;;;;22.40;64.60;;;;;;5036137;28;1401;-71
2021/10/21 10:09:51;;;;;;;;;;;22.50;64.50;;;;;;5035925;28;1902;-72
2021/10/21 10:12:17;;;;;;;;;;;22.50;64.30;;;;;;5053863;28;1760;-72
2021/10/21 10:14:43;;;;;;;;;;;22.50;64.20;;;;;;5054437;28;1460;-72
2021/10/21 10:17:09;;;;;;;;;;;22.50;64.00;;;;;;5018584;28;1378;-72
2021/10/21 10:19:34;;;;;;;;;;;22.50;64.30;;;;;;5035792;28;1440;-70
2021/10/21 10:22:01;;;;;;;;;;;22.50;64.40;;;;;;5053790;28;1137;-71
2021/10/21 10:24:32;;;;;;;;;;;22.50;64.40;;;;;;5053016;28;1799;-70
2021/10/21 10:26:58;;;;;;;;;;;22.40;64.40;;;;;;5036086;28;1718;-70
2021/10/21 10:29:32;;;;;;;;;;;22.40;64.30;;;;;;5053229;28;1913;-71
2021/10/21 10:32:01;;;;;;;;;;;22.40;64.40;;;;;;5053404;28;1446;-70
2021/10/21 10:34:49;;;;;;;;;;;22.40;65.30;;;;;;5053077;28;1575;-71
2021/10/21 10:37:21;;;;;;;;;;;22.40;64.50;;;;;;5053160;28;1679;-70
2021/10/21 10:39:53;;;;;;;;;;;22.40;64.70;;;;;;5025000;28;1328;-71
2021/10/21 10:42:31;;;;;;;;;;;22.30;64.60;;;;;;5015649;28;1612;-70
2021/10/21 10:44:59;;;;;;;;;;;22.30;64.60;;;;;;5032999;28;1464;-70
2021/10/21 10:47:37;;;;;;;;;;;22.30;64.60;;;;;;5033341;28;1626;-71
2021/10/21 10:50:02;;;;;;;;;;;22.30;64.60;;;;;;5015478;28;1898;-70
2021/10/21 10:52:35;;;;;;;;;;;22.30;64.70;;;;;;5033363;28;1631;-70
2021/10/21 10:55:03;;;;;;;;;;;22.30;64.70;;;;;;5015415;28;1678;-70
2021/10/21 10:57:28;;;;;;;;;;;22.30;64.70;;;;;;5029904;28;1816;-70
2021/10/21 10:59:57;;;;;;;;;;;22.30;65.50;;;;;;5049778;28;1388;-71
2021/10/21 11:02:22;;;;;;;;;;;22.30;64.80;;;;;;5012576;28;1410;-71
2021/10/21 11:04:50;;;;;;;;;;;22.30;65.20;;;;;;5044930;28;1690;-70
2021/10/21 11:07:16;;;;;;;;;;;22.30;65.10;;;;;;5034226;28;1291;-72
2021/10/21 11:09:43;;;;;;;;;;;22.30;65.20;;;;;;5034389;28;1894;-71
2021/10/21 11:12:12;;;;;;;;;;;22.20;65.40;;;;;;5030397;28;1811;-72
2021/10/21 11:14:43;;;;;;;;;;;22.20;65.40;;;;;;5048355;28;2130;-72
2021/10/21 11:17:09;;;;;;;;;;;22.20;65.50;;;;;;5052404;28;1670;-71
2021/10/21 11:19:35;;;;;;;;;;;22.20;65.50;;;;;;5034994;28;1807;-71
2021/10/21 11:22:00;;;;;;;;;;;22.20;65.60;;;;;;5052916;28;1429;-71
2021/10/21 11:24:53;;;;;;;;;;;22.20;65.60;;;;;;5030767;28;1568;-72
2021/10/21 11:27:25;;;;;;;;;;;22.20;65.70;;;;;;5032658;28;1390;-71
2021/10/21 11:29:52;;;;;;;;;;;22.20;65.70;;;;;;5027004;28;1959;-72
2021/10/21 11:32:17;;;;;;;;;;;22.20;65.80;;;;;;5037291;28;1190;-70
2021/10/21 11:34:49;;;;;;;;;;;22.20;65.80;;;;;;5036359;28;1420;-71
2021/10/21 11:37:15;;;;;;;;;;;22.10;65.80;;;;;;5036587;28;1387;-71
2021/10/21 11:39:40;;;;;;;;;;;22.10;65.80;;;;;;5019145;28;1194;-70
2021/10/21 11:42:10;;;;;;;;;;;22.10;65.90;;;;;;5036568;28;1303;-70
2021/10/21 11:44:35;;;;;;;;;;;22.10;66.00;;;;;;5036368;28;2141;-70
2021/10/21 11:47:01;;;;;;;;;;;22.10;66.10;;;;;;5054522;28;1490;-70
2021/10/21 11:49:27;;;;;;;;;;;22.10;66.20;;;;;;5045571;28;1955;-71
2021/10/21 11:52:05;;;;;;;;;;;22.10;66.20;;;;;;5039781;28;864;-70
2021/10/21 11:54:31;;;;;;;;;;;22.10;66.10;;;;;;5055576;28;1492;-71
2021/10/21 11:56:56;;;;;;;;;;;22.10;66.10;;;;;;5056207;28;1286;-70
2021/10/21 11:59:40;;;;;;;;;;;22.10;66.10;;;;;;5056105;28;1455;-71
2021/10/21 12:02:16;;;;;;;;;;;22.10;66.20;;;;;;5056394;28;1333;-71
2021/10/21 12:04:42;;;;;;;;;;;22.10;66.30;;;;;;5055855;28;1695;-71
2021/10/21 12:07:08;;;;;;;;;;;22.10;62.40;;;;;;5038378;28;1392;-70
2021/10/21 12:09:34;;;;;;;;;;;22.10;59.70;;;;;;5038133;28;1965;-71
2021/10/21 12:12:06;;;;;;;;;;;22.00;58.80;;;;;;5056242;28;1661;-71
2021/10/21 12:14:35;;;;;;;;;;;22.00;58.10;;;;;;5038502;28;1721;-71
2021/10/21 12:17:00;;;;;;;;;;;21.90;57.70;;;;;;5056064;28;1366;-71
2021/10/21 12:19:27;;;;;;;;;;;21.90;57.00;;;;;;5055717;28;1644;-71
2021/10/21 12:22:01;;;;;;;;;;;21.90;56.90;;;;;;5037919;28;1376;-71
2021/10/21 12:24:26;;;;;;;;;;;21.90;56.60;;;;;;5037343;28;1414;-71
2021/10/21 12:26:58;;;;;;;;;;;21.90;56.20;;;;;;5055866;28;1321;-72
2021/10/21 12:29:28;;;;;;;;;;;21.80;55.70;;;;;;5055411;28;1963;-71
2021/10/21 12:31:53;;;;;;;;;;;21.80;55.90;;;;;;5055406;28;1414;-69
2021/10/21 12:34:23;;;;;;;;;;;21.80;55.60;;;;;;5055042;28;1382;-70
2021/10/21 12:36:50;;;;;;;;;;;21.80;55.50;;;;;;5036471;28;1250;-70
2021/10/21 12:39:16;;;;;;;;;;;21.80;55.50;;;;;;5050007;28;2026;-70
2021/10/21 12:42:01;;;;;;;;;;;21.80;55.70;;;;;;5036797;28;1332;-70
2021/10/21 12:44:33;;;;;;;;;;;21.80;55.50;;;;;;5043837;28;1323;-70
2021/10/21 12:47:06;;;;;;;;;;;21.70;55.30;;;;;;5055180;28;1286;-70
2021/10/21 12:49:31;;;;;;;;;;;21.70;55.20;;;;;;5037416;28;1961;-70
2021/10/21 12:52:03;;;;;;;;;;;21.70;55.40;;;;;;5054970;28;1075;-70
2021/10/21 12:54:28;;;;;;;;;;;21.70;55.20;;;;;;5036973;28;1332;-70
2021/10/21 12:56:58;;;;;;;;;;;21.70;54.70;;;;;;5050552;28;1282;-69
2021/10/21 12:59:24;;;;;;;;;;;21.70;54.40;;;;;;5034910;28;1076;-70
2021/10/21 13:01:53;;;;;;;;;;;21.70;54.20;;;;;;5017819;28;1501;-71
2021/10/21 13:04:37;;;;;;;;;;;21.70;54.50;;;;;;5050193;28;1304;-71
2021/10/21 13:07:03;;;;;;;;;;;21.70;55.30;;;;;;5053216;28;1213;-72
2021/10/21 13:09:34;;;;;;;;;;;21.60;54.20;;;;;;5036702;28;1956;-70
2021/10/21 13:12:00;;;;;;;;;;;21.60;54.40;;;;;;5037061;28;1163;-71
2021/10/21 13:14:29;;;;;;;;;;;21.60;54.60;;;;;;5055121;28;1290;-71
2021/10/21 13:16:55;;;;;;;;;;;21.60;53.00;;;;;;5036592;28;1139;-70
2021/10/21 13:19:20;;;;;;;;;;;21.60;53.30;;;;;;5036505;28;1115;-72
2021/10/21 13:21:46;;;;;;;;;;;21.60;53.70;;;;;;5054525;28;1360;-71
2021/10/21 13:24:11;;;;;;;;;;;21.60;53.20;;;;;;5035641;28;1325;-70
2021/10/21 13:26:37;;;;;;;;;;;21.60;53.40;;;;;;5054074;28;1138;-71
2021/10/21 13:29:05;;;;;;;;;;;21.60;53.20;;;;;;5019787;28;1120;-70
2021/10/21 13:31:30;;;;;;;;;;;21.60;53.50;;;;;;5054240;28;1979;-70
2021/10/21 13:33:55;;;;;;;;;;;21.50;53.80;;;;;;5054254;28;1628;-70
2021/10/21 13:36:21;;;;;;;;;;;21.50;53.20;;;;;;5052737;28;2092;-70
2021/10/21 13:38:46;;;;;;;;;;;21.50;53.30;;;;;;5048247;28;1800;-70
2021/10/21 13:41:12;;;;;;;;;;;21.50;54.20;;;;;;5057800;28;1134;-71
2021/10/21 13:43:37;;;;;;;;;;;21.50;53.70;;;;;;5041001;28;1341;-71
2021/10/21 13:46:02;;;;;;;;;;;21.50;53.60;;;;;;5053858;28;1079;-71
2021/10/21 13:48:29;;;;;;;;;;;21.40;54.00;;;;;;5023819;28;1523;-71
2021/10/21 13:50:55;;;;;;;;;;;21.50;53.90;;;;;;5061779;28;1964;-71
2021/10/21 13:53:21;;;;;;;;;;;21.40;54.30;;;;;;5053899;28;1269;-70
2021/10/21 13:55:46;;;;;;;;;;;21.40;53.90;;;;;;5054275;28;1071;-69
2021/10/21 13:58:12;;;;;;;;;;;21.40;57.90;;;;;;5054295;28;1330;-70
2021/10/21 14:00:37;;;;;;;;;;;21.40;59.10;;;;;;5021139;28;1091;-69
2021/10/21 14:03:03;;;;;;;;;;;21.40;58.30;;;;;;5055025;28;1433;-69
2021/10/21 14:05:30;;;;;;;;;;;21.40;58.20;;;;;;5037237;28;1612;-70
2021/10/21 14:07:56;;;;;;;;;;;21.40;58.50;;;;;;5037421;28;1453;-71
2021/10/21 14:10:22;;;;;;;;;;;21.40;58.40;;;;;;5031317;28;2264;-70
2021/10/21 14:12:48;;;;;;;;;;;21.40;58.80;;;;;;5038278;28;1263;-71
2021/10/21 14:15:13;;;;;;;;;;;21.40;58.70;;;;;;5058536;28;1183;-71
2021/10/21 14:17:38;;;;;;;;;;;21.40;59.00;;;;;;5065474;28;1137;-71
2021/10/21 14:20:04;;;;;;;;;;;21.40;59.10;;;;;;5024326;28;1787;-70
2021/10/21 14:22:30;;;;;;;;;;;21.40;59.20;;;;;;5056749;28;1230;-71
2021/10/21 14:24:55;;;;;;;;;;;21.40;59.60;;;;;;5038705;28;1344;-70
2021/10/21 14:27:20;;;;;;;;;;;21.40;59.80;;;;;;5039362;28;1293;-70